createdAt,value
2023-03-29T00:00:30.496Z,96643.09
2023-03-29T00:02:57.993Z,96652.53
2023-03-29T00:05:26.131Z,96657.91
2023-03-29T00:08:02.604Z,96654.09
2023-03-29T00:10:32.719Z,96667.66
2023-03-29T00:12:59.924Z,96663.38
2023-03-29T00:15:26.887Z,96657.44
2023-03-29T00:17:54.164Z,96664.50
2023-03-29T00:20:20.887Z,96660.97
2023-03-29T00:22:48.002Z,96665.00
2023-03-29T00:25:14.719Z,96673.13
2023-03-29T00:27:41.537Z,96661.25
2023-03-29T00:30:10.192Z,96663.94
2023-03-29T00:32:37.186Z,96662.34
2023-03-29T00:35:06.169Z,96664.50
2023-03-29T00:37:33.165Z,96653.69
2023-03-29T00:39:59.922Z,96649.63
2023-03-29T00:42:27.026Z,96656.13
2023-03-29T00:45:04.736Z,96634.78
2023-03-29T00:47:42.653Z,96654.72
2023-03-29T00:50:26.363Z,96657.44
2023-03-29T00:53:03.724Z,96654.66
2023-03-29T00:55:55.901Z,96661.91
2023-03-29T00:58:30.716Z,96663.50
2023-03-29T01:01:08.856Z,96657.53
2023-03-29T01:03:41.575Z,96640.03
2023-03-29T01:06:09.163Z,96646.34
2023-03-29T01:08:40.418Z,96652.88
2023-03-29T01:11:15.865Z,96659.88
2023-03-29T01:13:51.079Z,96649.34
2023-03-29T01:16:19.553Z,96669.56
2023-03-29T01:18:49.397Z,96653.91
2023-03-29T01:21:47.912Z,96653.66
2023-03-29T01:24:44.353Z,96650.66
2023-03-29T01:27:38.847Z,96663.03
2023-03-29T01:30:43.758Z,96665.34
2023-03-29T01:33:23.625Z,96652.88
2023-03-29T01:36:19.247Z,96686.41
2023-03-29T01:38:51.667Z,96664.22
2023-03-29T01:41:18.505Z,96666.06
2023-03-29T01:43:51.414Z,96686.97
2023-03-29T01:46:25.771Z,96691.28
2023-03-29T01:49:23.869Z,96698.34
2023-03-29T01:51:59.015Z,96679.97
2023-03-29T01:54:33.587Z,96692.38
2023-03-29T01:57:03.092Z,96688.88
2023-03-29T01:59:32.428Z,96685.41
2023-03-29T02:02:01.412Z,96688.88
2023-03-29T02:04:34.705Z,96693.72
2023-03-29T02:07:03.238Z,96682.06
2023-03-29T02:09:30.768Z,96676.09
2023-03-29T02:12:00.196Z,96667.38
2023-03-29T02:14:27.717Z,96681.38
2023-03-29T02:16:54.370Z,96684.59
2023-03-29T02:19:24.157Z,96688.88
2023-03-29T02:22:04.514Z,96699.66
2023-03-29T02:24:34.548Z,96677.47
2023-03-29T02:27:01.469Z,96670.38
2023-03-29T02:29:28.335Z,96691.16
2023-03-29T02:32:13.015Z,96711.34
2023-03-29T02:34:54.689Z,96681.22
2023-03-29T02:37:22.744Z,96662.09
2023-03-29T02:39:51.269Z,96668.50
2023-03-29T02:42:20.590Z,96667.66
2023-03-29T02:44:50.517Z,96644.03
2023-03-29T02:47:22.560Z,96639.31
2023-03-29T02:49:50.447Z,96650.09
2023-03-29T02:52:22.225Z,96653.59
2023-03-29T02:54:50.382Z,96657.41
2023-03-29T02:57:17.387Z,96655.06
2023-03-29T02:59:44.992Z,96662.78
2023-03-29T03:02:12.338Z,96665.53
2023-03-29T03:04:39.570Z,96665.38
2023-03-29T03:07:06.330Z,96658.63
2023-03-29T03:09:33.738Z,96662.44
2023-03-29T03:12:00.518Z,96660.03
2023-03-29T03:14:28.345Z,96656.78
2023-03-29T03:16:57.998Z,96653.38
2023-03-29T03:19:24.930Z,96658.75
2023-03-29T03:21:51.805Z,96646.13
2023-03-29T03:24:18.926Z,96645.34
2023-03-29T03:26:46.500Z,96635.31
2023-03-29T03:29:14.551Z,96632.66
2023-03-29T03:32:07.914Z,96630.56
2023-03-29T03:34:57.224Z,96628.91
2023-03-29T03:37:25.731Z,96629.53
2023-03-29T03:39:52.639Z,96630.63
2023-03-29T03:42:20.523Z,96637.47
2023-03-29T03:44:47.836Z,96638.91
2023-03-29T03:47:39.576Z,96635.06
2023-03-29T03:50:19.285Z,96632.28
2023-03-29T03:52:46.547Z,96616.59
2023-03-29T03:55:14.524Z,96624.97
2023-03-29T03:57:47.989Z,96621.25
2023-03-29T04:00:21.544Z,96613.19
2023-03-29T04:03:20.019Z,96615.56
2023-03-29T04:05:47.947Z,96613.44
2023-03-29T04:08:16.665Z,96611.91
2023-03-29T04:11:02.067Z,96612.50
2023-03-29T04:13:35.793Z,96614.13
2023-03-29T04:16:21.444Z,96610.91
2023-03-29T04:18:48.528Z,96618.78
2023-03-29T04:21:15.834Z,96611.75
2023-03-29T04:23:43.403Z,96616.97
2023-03-29T04:26:10.301Z,96613.94
2023-03-29T04:28:47.182Z,96614.38
2023-03-29T04:31:19.213Z,96606.41
2023-03-29T04:34:21.742Z,96592.25
2023-03-29T04:36:51.978Z,96592.66
2023-03-29T04:39:22.971Z,96600.28
2023-03-29T04:41:55.485Z,96605.28
2023-03-29T04:44:27.022Z,96592.22
2023-03-29T04:46:57.374Z,96587.28
2023-03-29T04:49:54.317Z,96590.09
2023-03-29T04:52:35.940Z,96587.75
2023-03-29T04:55:06.304Z,96574.31
2023-03-29T04:57:44.726Z,96571.16
2023-03-29T05:00:27.404Z,96561.75
2023-03-29T05:03:18.005Z,96557.63
2023-03-29T05:06:10.809Z,96562.53
2023-03-29T05:08:39.895Z,96568.41
2023-03-29T05:11:14.202Z,96563.41
2023-03-29T05:13:43.117Z,96550.38
2023-03-29T05:16:11.390Z,96549.25
2023-03-29T05:18:39.790Z,96541.94
2023-03-29T05:21:07.796Z,96541.56
2023-03-29T05:23:36.838Z,96547.50
2023-03-29T05:26:23.381Z,96545.50
2023-03-29T05:28:54.107Z,96550.78
2023-03-29T05:31:21.621Z,96542.03
2023-03-29T05:33:53.691Z,96529.13
2023-03-29T05:36:22.023Z,96538.53
2023-03-29T05:38:50.525Z,96541.72
2023-03-29T05:41:19.983Z,96549.22
2023-03-29T05:44:06.718Z,96536.16
2023-03-29T05:46:34.565Z,96514.25
2023-03-29T05:49:04.405Z,96515.19
2023-03-29T05:52:01.163Z,96524.88
2023-03-29T05:54:30.849Z,96505.00
2023-03-29T05:56:58.432Z,96517.41
2023-03-29T05:59:28.583Z,96515.34
2023-03-29T06:01:55.912Z,96507.69
2023-03-29T06:04:22.908Z,96486.47
2023-03-29T06:07:10.424Z,96503.56
2023-03-29T06:09:39.630Z,96497.72
2023-03-29T06:12:08.446Z,96499.25
2023-03-29T06:14:50.305Z,96504.91
2023-03-29T06:17:33.606Z,96492.38
2023-03-29T06:20:01.556Z,96519.34
2023-03-29T06:22:30.812Z,96500.84
2023-03-29T06:24:58.626Z,96500.34
2023-03-29T06:27:30.054Z,96506.22
2023-03-29T06:29:57.503Z,96524.66
2023-03-29T06:32:24.426Z,96513.22
2023-03-29T06:34:57.804Z,96521.38
2023-03-29T06:37:32.138Z,96518.19
2023-03-29T06:40:10.211Z,96536.00
2023-03-29T06:42:45.464Z,96538.59
2023-03-29T06:45:16.150Z,96546.66
2023-03-29T06:47:47.606Z,96535.72
2023-03-29T06:50:14.818Z,96530.56
2023-03-29T06:52:52.703Z,96542.88
2023-03-29T06:55:20.753Z,96526.88
2023-03-29T06:57:49.045Z,96533.25
2023-03-29T07:00:28.133Z,96524.88
2023-03-29T07:03:20.598Z,96534.16
2023-03-29T07:05:52.274Z,96526.50
2023-03-29T07:08:21.467Z,96534.69
2023-03-29T07:10:58.636Z,96538.03
2023-03-29T07:13:26.543Z,96541.66
2023-03-29T07:15:54.894Z,96535.44
2023-03-29T07:18:31.848Z,96533.28
2023-03-29T07:20:58.937Z,96548.09
2023-03-29T07:23:26.127Z,96544.97
2023-03-29T07:25:53.779Z,96544.75
2023-03-29T07:28:21.786Z,96551.69
2023-03-29T07:30:49.922Z,96558.69
2023-03-29T07:33:21.437Z,96542.06
2023-03-29T07:35:55.705Z,96546.19
2023-03-29T07:38:23.870Z,96548.00
2023-03-29T07:41:08.248Z,96558.03
2023-03-29T07:44:09.647Z,96549.44
2023-03-29T07:46:38.678Z,96555.69
2023-03-29T07:49:08.507Z,96559.41
2023-03-29T07:51:37.332Z,96548.22
2023-03-29T07:54:09.212Z,96553.97
2023-03-29T07:56:39.355Z,96559.28
2023-03-29T07:59:25.110Z,96559.59
2023-03-29T08:02:05.254Z,96554.31
2023-03-29T08:04:37.513Z,96549.00
2023-03-29T08:07:27.954Z,96552.81
2023-03-29T08:10:04.228Z,96543.22
2023-03-29T08:12:52.331Z,96541.72
2023-03-29T08:15:23.703Z,96548.41
2023-03-29T08:17:50.902Z,96544.25
2023-03-29T08:20:18.169Z,96535.69
2023-03-29T08:22:51.933Z,96534.41
2023-03-29T08:25:18.714Z,96533.41
2023-03-29T08:27:49.678Z,96536.50
2023-03-29T08:30:25.138Z,96534.59
2023-03-29T08:32:55.016Z,96541.03
2023-03-29T08:35:22.737Z,96541.34
2023-03-29T08:38:01.824Z,96548.00
2023-03-29T08:40:30.592Z,96544.38
2023-03-29T08:43:18.601Z,96547.50
2023-03-29T08:46:35.381Z,96537.31
2023-03-29T08:49:17.587Z,96544.09
2023-03-29T08:51:54.267Z,96541.69
2023-03-29T08:54:27.386Z,96548.94
2023-03-29T08:57:29.525Z,96536.78
2023-03-29T09:00:05.640Z,96546.13
2023-03-29T09:02:36.260Z,96525.56
2023-03-29T09:05:21.122Z,96535.53
2023-03-29T09:08:13.669Z,96540.75
2023-03-29T09:10:47.400Z,96527.66
2023-03-29T09:13:15.008Z,96539.84
2023-03-29T09:16:06.197Z,96549.31
2023-03-29T09:18:57.229Z,96536.13
2023-03-29T09:21:43.628Z,96548.88
2023-03-29T09:24:10.852Z,96550.34
2023-03-29T09:27:03.425Z,96550.25
2023-03-29T09:29:34.788Z,96535.84
2023-03-29T09:32:04.020Z,96554.31
2023-03-29T09:34:36.939Z,96543.81
2023-03-29T09:37:15.050Z,96549.22
2023-03-29T09:39:42.812Z,96546.81
2023-03-29T09:42:14.510Z,96549.69
2023-03-29T09:44:52.733Z,96542.94
2023-03-29T09:47:58.302Z,96553.38
2023-03-29T09:50:34.168Z,96551.41
2023-03-29T09:53:05.563Z,96549.59
2023-03-29T09:55:37.272Z,96549.34
2023-03-29T09:58:27.558Z,96552.53
2023-03-29T10:00:58.262Z,96541.75
2023-03-29T10:03:29.873Z,96547.88
2023-03-29T10:06:11.213Z,96536.47
2023-03-29T10:08:42.463Z,96530.56
2023-03-29T10:11:15.346Z,96520.88
2023-03-29T10:13:47.785Z,96532.81
2023-03-29T10:16:21.391Z,96521.31
2023-03-29T10:18:50.308Z,96508.47
2023-03-29T10:21:17.482Z,96515.53
2023-03-29T10:23:44.659Z,96517.50
2023-03-29T10:26:19.980Z,96506.44
2023-03-29T10:28:46.748Z,96505.75
2023-03-29T10:31:18.918Z,96503.97
2023-03-29T10:33:51.693Z,96501.69
2023-03-29T10:36:18.890Z,96500.03
2023-03-29T10:38:46.393Z,96497.31
2023-03-29T10:41:16.097Z,96483.66
2023-03-29T10:43:45.598Z,96491.50
2023-03-29T10:46:20.978Z,96479.31
2023-03-29T10:48:50.362Z,96493.97
2023-03-29T10:51:18.755Z,96490.53
2023-03-29T10:53:46.027Z,96490.19
2023-03-29T10:56:17.037Z,96478.78
2023-03-29T10:59:16.698Z,96482.59
2023-03-29T11:02:05.804Z,96478.59
2023-03-29T11:04:56.869Z,96475.41
2023-03-29T11:07:38.634Z,96473.78
2023-03-29T11:10:43.958Z,96472.81
2023-03-29T11:13:33.867Z,96472.78
2023-03-29T11:16:27.529Z,96475.03
2023-03-29T11:19:06.901Z,96461.25
2023-03-29T11:21:59.860Z,96453.88
2023-03-29T11:24:58.774Z,96457.25
2023-03-29T11:27:43.702Z,96463.50
2023-03-29T11:30:16.775Z,96454.84
2023-03-29T11:33:11.852Z,96460.94
2023-03-29T11:35:47.800Z,96455.75
2023-03-29T11:38:32.871Z,96446.84
2023-03-29T11:41:13.991Z,96448.28
2023-03-29T11:44:03.890Z,96451.03
2023-03-29T11:46:34.517Z,96442.81
2023-03-29T11:49:23.073Z,96434.25
2023-03-29T11:52:23.056Z,96437.22
2023-03-29T11:54:58.549Z,96433.25
2023-03-29T11:57:57.893Z,96426.53
2023-03-29T12:00:30.091Z,96427.91
2023-03-29T12:03:07.058Z,96422.34
2023-03-29T12:05:44.464Z,96421.06
2023-03-29T12:08:21.515Z,96417.81
2023-03-29T12:10:52.944Z,96418.56
2023-03-29T12:13:34.307Z,96412.19
2023-03-29T12:16:20.881Z,96403.13
2023-03-29T12:18:50.088Z,96399.16
2023-03-29T12:21:21.550Z,96408.84
2023-03-29T12:23:50.016Z,96406.13
2023-03-29T12:26:40.508Z,96404.47
2023-03-29T12:29:23.009Z,96399.34
2023-03-29T12:31:59.495Z,96396.03
2023-03-29T12:34:58.734Z,96399.19
2023-03-29T12:37:36.401Z,96390.69
2023-03-29T12:40:23.311Z,96386.06
2023-03-29T12:43:16.210Z,96373.47
2023-03-29T12:46:07.009Z,96378.47
2023-03-29T12:48:35.294Z,96363.47
2023-03-29T12:51:04.254Z,96368.88
2023-03-29T12:53:33.210Z,96372.97
2023-03-29T12:56:04.142Z,96371.94
2023-03-29T12:58:43.202Z,96365.22
2023-03-29T13:01:27.736Z,96373.06
2023-03-29T13:04:01.610Z,96367.44
2023-03-29T13:06:33.125Z,96366.63
2023-03-29T13:09:20.687Z,96359.69
2023-03-29T13:11:55.659Z,96366.16
2023-03-29T13:14:26.454Z,96360.94
2023-03-29T13:16:53.918Z,96363.16
2023-03-29T13:19:38.764Z,96367.09
2023-03-29T13:22:30.225Z,96362.97
2023-03-29T13:25:06.837Z,96366.34
2023-03-29T13:27:59.078Z,96369.78
2023-03-29T13:30:47.510Z,96363.84
2023-03-29T13:33:28.896Z,96356.75
2023-03-29T13:36:05.563Z,96352.97
2023-03-29T13:38:33.294Z,96351.25
2023-03-29T13:41:03.751Z,96348.66
2023-03-29T13:43:32.961Z,96343.81
2023-03-29T13:46:00.172Z,96334.50
2023-03-29T13:48:29.467Z,96338.25
2023-03-29T13:50:57.696Z,96337.53
2023-03-29T13:53:37.636Z,96340.16
2023-03-29T13:56:06.988Z,96321.38
2023-03-29T13:59:05.655Z,96317.06
2023-03-29T14:01:43.603Z,96306.19
2023-03-29T14:04:20.680Z,96310.91
2023-03-29T14:06:53.186Z,96303.94
2023-03-29T14:09:22.859Z,96310.25
2023-03-29T14:11:49.888Z,96304.97
2023-03-29T14:14:17.960Z,96310.38
2023-03-29T14:16:44.793Z,96307.78
2023-03-29T14:19:16.684Z,96308.38
2023-03-29T14:21:44.110Z,96300.53
2023-03-29T14:24:13.492Z,96303.94
2023-03-29T14:26:44.179Z,96303.59
2023-03-29T14:29:12.457Z,96308.97
2023-03-29T14:31:41.336Z,96301.16
2023-03-29T14:34:14.179Z,96302.38
2023-03-29T14:36:41.416Z,96297.34
2023-03-29T14:39:20.162Z,96292.72
2023-03-29T14:41:50.790Z,96288.59
2023-03-29T14:44:19.760Z,96294.25
2023-03-29T14:46:49.423Z,96291.22
2023-03-29T14:49:18.446Z,96288.59
2023-03-29T14:51:46.669Z,96293.16
2023-03-29T14:54:20.808Z,96296.03
2023-03-29T14:56:48.959Z,96285.34
2023-03-29T14:59:29.626Z,96291.88
2023-03-29T15:01:56.912Z,96289.19
2023-03-29T15:04:24.091Z,96282.22
2023-03-29T15:06:52.540Z,96283.44
2023-03-29T15:09:27.902Z,96280.56
2023-03-29T15:11:57.025Z,96275.19
2023-03-29T15:14:26.880Z,96284.53
2023-03-29T15:17:01.301Z,96275.03
2023-03-29T15:19:28.491Z,96275.03
2023-03-29T15:21:56.286Z,96267.03
2023-03-29T15:24:31.367Z,96256.03
2023-03-29T15:27:21.360Z,96265.53
2023-03-29T15:29:49.079Z,96256.03
2023-03-29T15:32:38.833Z,96267.78
2023-03-29T15:35:09.785Z,96257.47
2023-03-29T15:37:48.107Z,96264.94
2023-03-29T15:40:21.808Z,96260.53
2023-03-29T15:42:51.110Z,96271.63
2023-03-29T15:45:19.441Z,96264.88
2023-03-29T15:47:47.402Z,96258.13
2023-03-29T15:50:15.638Z,96261.53
2023-03-29T15:52:42.526Z,96258.50
2023-03-29T15:55:09.644Z,96265.19
2023-03-29T15:57:36.667Z,96266.03
2023-03-29T16:00:08.635Z,96261.41
2023-03-29T16:02:39.194Z,96264.00
2023-03-29T16:05:06.570Z,96257.06
2023-03-29T16:07:34.426Z,96254.50
2023-03-29T16:10:01.928Z,96265.25
2023-03-29T16:12:29.314Z,96253.84
2023-03-29T16:14:56.751Z,96260.38
2023-03-29T16:17:25.004Z,96250.81
2023-03-29T16:19:52.188Z,96258.34
2023-03-29T16:22:19.620Z,96253.84
2023-03-29T16:24:49.673Z,96253.34
2023-03-29T16:27:18.079Z,96248.94
2023-03-29T16:29:45.590Z,96257.19
2023-03-29T16:32:13.894Z,96252.41
2023-03-29T16:34:42.326Z,96254.22
2023-03-29T16:37:10.597Z,96262.13
2023-03-29T16:39:42.020Z,96260.47
2023-03-29T16:42:12.054Z,96257.06
2023-03-29T16:44:39.202Z,96261.41
2023-03-29T16:47:06.974Z,96260.97
2023-03-29T16:49:33.748Z,96272.84
2023-03-29T16:52:01.100Z,96278.13
2023-03-29T16:54:29.826Z,96271.94
2023-03-29T16:56:57.805Z,96271.28
2023-03-29T16:59:24.968Z,96267.22
2023-03-29T17:01:52.287Z,96276.09
2023-03-29T17:04:20.117Z,96274.00
2023-03-29T17:06:49.268Z,96280.66
2023-03-29T17:09:18.618Z,96273.09
2023-03-29T17:11:46.532Z,96270.13
2023-03-29T17:14:15.236Z,96270.97
2023-03-29T17:16:43.461Z,96283.81
2023-03-29T17:19:10.994Z,96281.78
2023-03-29T17:21:38.382Z,96276.38
2023-03-29T17:24:05.444Z,96282.13
2023-03-29T17:26:32.479Z,96283.28
2023-03-29T17:29:00.719Z,96286.88
2023-03-29T17:31:29.754Z,96294.16
2023-03-29T17:34:00.857Z,96284.34
2023-03-29T17:36:31.251Z,96287.09
2023-03-29T17:41:31.035Z,96292.16
2023-03-29T17:43:59.018Z,96293.09
2023-03-29T17:46:28.813Z,96299.72
2023-03-29T17:48:56.222Z,96296.06
2023-03-29T17:51:24.491Z,96295.50
2023-03-29T17:53:52.621Z,96286.66
2023-03-29T17:56:22.823Z,96299.41
2023-03-29T17:58:51.657Z,96299.06
2023-03-29T18:01:21.309Z,96299.06
2023-03-29T18:03:48.718Z,96300.09
2023-03-29T18:06:18.609Z,96295.34
2023-03-29T18:08:47.397Z,96293.50
2023-03-29T18:11:22.357Z,96300.72
2023-03-29T18:13:51.918Z,96317.34
2023-03-29T18:16:21.768Z,96311.84
2023-03-29T18:18:50.086Z,96308.22
2023-03-29T18:21:18.130Z,96309.53
2023-03-29T18:23:48.149Z,96317.88
2023-03-29T18:26:16.436Z,96313.97
2023-03-29T18:28:47.056Z,96317.34
2023-03-29T18:31:14.486Z,96317.34
2023-03-29T18:33:42.461Z,96314.31
2023-03-29T18:36:13.336Z,96327.00
2023-03-29T18:38:44.358Z,96330.75
2023-03-29T18:41:14.504Z,96322.94
2023-03-29T18:43:45.034Z,96331.72
2023-03-29T18:46:12.974Z,96331.34
2023-03-29T18:48:41.600Z,96335.53
2023-03-29T18:51:12.102Z,96312.97
2023-03-29T18:53:42.670Z,96325.31
2023-03-29T18:56:11.904Z,96320.31
2023-03-29T18:58:39.384Z,96320.13
2023-03-29T19:01:06.692Z,96324.53
2023-03-29T19:03:35.016Z,96318.13
2023-03-29T19:06:02.397Z,96313.72
2023-03-29T19:08:29.461Z,96318.44
2023-03-29T19:11:04.568Z,96312.41
2023-03-29T19:13:31.431Z,96310.59
2023-03-29T19:15:58.201Z,96299.53
2023-03-29T19:18:25.031Z,96300.19
2023-03-29T19:20:53.874Z,96313.31
2023-03-29T19:23:21.946Z,96301.28
2023-03-29T19:25:56.297Z,96295.50
2023-03-29T19:28:23.537Z,96295.78
2023-03-29T19:30:50.585Z,96285.19
2023-03-29T19:33:17.452Z,96286.50
2023-03-29T19:35:44.651Z,96281.91
2023-03-29T19:38:11.867Z,96283.03
2023-03-29T19:40:38.880Z,96266.69
2023-03-29T19:43:06.482Z,96279.50
2023-03-29T19:45:33.617Z,96279.50
2023-03-29T19:48:03.174Z,96277.19
2023-03-29T19:50:32.094Z,96281.69
2023-03-29T19:52:59.267Z,96264.84
2023-03-29T19:55:27.382Z,96277.03
2023-03-29T19:57:54.537Z,96267.97
2023-03-29T20:00:25.083Z,96258.50
2023-03-29T20:02:52.587Z,96255.69
2023-03-29T20:05:20.217Z,96249.13
2023-03-29T20:07:47.024Z,96260.59
2023-03-29T20:10:13.794Z,96262.19
2023-03-29T20:12:40.798Z,96255.56
2023-03-29T20:15:09.667Z,96264.34
2023-03-29T20:17:41.171Z,96267.38
2023-03-29T20:20:10.442Z,96265.59
2023-03-29T20:22:42.386Z,96257.53
2023-03-29T20:25:10.593Z,96253.84
2023-03-29T20:27:38.525Z,96250.50
2023-03-29T20:30:06.864Z,96248.91
2023-03-29T20:32:34.370Z,96244.34
2023-03-29T20:35:01.925Z,96253.72
2023-03-29T20:37:29.319Z,96261.56
2023-03-29T20:39:57.237Z,96253.19
2023-03-29T20:42:28.946Z,96247.75
2023-03-29T20:44:56.735Z,96253.00
2023-03-29T20:47:24.742Z,96253.41
2023-03-29T20:49:54.565Z,96259.94
2023-03-29T20:52:22.877Z,96259.03
2023-03-29T20:54:50.277Z,96251.59
2023-03-29T20:57:20.088Z,96253.84
2023-03-29T20:59:49.523Z,96252.47
2023-03-29T21:02:20.938Z,96245.53
2023-03-29T21:04:52.814Z,96228.94
2023-03-29T21:07:21.663Z,96230.06
2023-03-29T21:09:50.134Z,96243.41
2023-03-29T21:12:17.888Z,96237.47
2023-03-29T21:14:45.365Z,96241.28
2023-03-29T21:17:12.385Z,96239.31
2023-03-29T21:19:39.850Z,96236.13
2023-03-29T21:22:07.316Z,96227.81
2023-03-29T21:24:36.576Z,96231.03
2023-03-29T21:27:04.342Z,96225.97
2023-03-29T21:29:31.489Z,96223.47
2023-03-29T21:31:59.138Z,96230.47
2023-03-29T21:34:26.421Z,96235.38
2023-03-29T21:36:53.983Z,96217.28
2023-03-29T21:39:20.978Z,96203.19
2023-03-29T21:41:48.263Z,96206.19
2023-03-29T21:44:15.210Z,96201.47
2023-03-29T21:46:42.348Z,96196.97
2023-03-29T21:49:09.329Z,96201.56
2023-03-29T21:51:36.069Z,96192.00
2023-03-29T21:54:03.170Z,96198.38
2023-03-29T21:56:30.439Z,96200.75
2023-03-29T21:58:57.383Z,96194.38
2023-03-29T22:01:24.168Z,96192.78
2023-03-29T22:03:51.171Z,96195.72
2023-03-29T22:06:17.838Z,96190.66
2023-03-29T22:08:46.660Z,96187.41
2023-03-29T22:11:15.534Z,96181.69
2023-03-29T22:13:44.146Z,96174.97
2023-03-29T22:16:14.341Z,96178.94
2023-03-29T22:18:46.948Z,96182.59
2023-03-29T22:21:17.915Z,96184.78
2023-03-29T22:23:47.274Z,96166.81
2023-03-29T22:26:17.359Z,96166.81
2023-03-29T22:28:44.723Z,96164.56
2023-03-29T22:31:15.383Z,96161.31
2023-03-29T22:33:43.084Z,96161.13
2023-03-29T22:36:20.123Z,96171.47
2023-03-29T22:38:48.057Z,96160.75
2023-03-29T22:41:15.559Z,96157.41
2023-03-29T22:43:42.374Z,96157.63
2023-03-29T22:46:11.232Z,96165.41
2023-03-29T22:48:38.096Z,96142.81
2023-03-29T22:51:05.973Z,96155.94
2023-03-29T22:53:35.908Z,96150.59
2023-03-29T22:56:03.042Z,96149.47
2023-03-29T22:58:30.046Z,96154.59
2023-03-29T23:00:57.647Z,96133.88
2023-03-29T23:03:24.508Z,96148.75
2023-03-29T23:05:56.018Z,96155.50
2023-03-29T23:08:24.344Z,96169.78
2023-03-29T23:10:51.995Z,96169.59
2023-03-29T23:13:29.146Z,96175.50
2023-03-29T23:16:01.226Z,96183.75
2023-03-29T23:18:30.285Z,96190.69
2023-03-29T23:20:58.534Z,96192.28
2023-03-29T23:23:26.781Z,96187.59
2023-03-29T23:25:54.511Z,96183.03
2023-03-29T23:28:23.694Z,96185.63
2023-03-29T23:31:04.301Z,96188.59
2023-03-29T23:33:33.650Z,96192.41
2023-03-29T23:36:03.946Z,96182.50
2023-03-29T23:38:33.998Z,96180.34
2023-03-29T23:41:03.758Z,96173.47
2023-03-29T23:43:33.430Z,96175.78
2023-03-29T23:46:02.595Z,96176.72
2023-03-29T23:48:30.493Z,96163.75
2023-03-29T23:50:58.038Z,96169.75
2023-03-29T23:53:29.362Z,96167.44
2023-03-29T23:56:01.827Z,96172.22
2023-03-29T23:58:31.004Z,96165.81
